sensor_id;sensor_type;location;lat;lon;timestamp;P1;durP1;ratioP1;P2;durP2;ratioP2
66585;SDS011;53444;45.822;16.092;2023-08-17T00:02:16;8.63;;;6.20;;
66585;SDS011;53444;45.822;16.092;2023-08-17T00:04:43;7.65;;;6.43;;
66585;SDS011;53444;45.822;16.092;2023-08-17T00:07:09;9.77;;;6.67;;
66585;SDS011;53444;45.822;16.092;2023-08-17T00:09:36;8.10;;;6.65;;
66585;SDS011;53444;45.822;16.092;2023-08-17T00:12:03;8.80;;;6.15;;
66585;SDS011;53444;45.822;16.092;2023-08-17T00:14:30;7.65;;;5.55;;
66585;SDS011;53444;45.822;16.092;2023-08-17T00:16:58;7.82;;;6.30;;
66585;SDS011;53444;45.822;16.092;2023-08-17T00:19:25;7.17;;;5.80;;
66585;SDS011;53444;45.822;16.092;2023-08-17T00:21:51;8.85;;;6.22;;
66585;SDS011;53444;45.822;16.092;2023-08-17T00:24:20;8.93;;;6.22;;
66585;SDS011;53444;45.822;16.092;2023-08-17T00:26:46;12.55;;;6.07;;
66585;SDS011;53444;45.822;16.092;2023-08-17T00:29:13;7.60;;;6.68;;
66585;SDS011;53444;45.822;16.092;2023-08-17T00:31:40;6.90;;;6.00;;
66585;SDS011;53444;45.822;16.092;2023-08-17T00:34:08;7.55;;;6.43;;
66585;SDS011;53444;45.822;16.092;2023-08-17T00:36:35;8.23;;;6.32;;
66585;SDS011;53444;45.822;16.092;2023-08-17T00:39:01;9.52;;;6.32;;
66585;SDS011;53444;45.822;16.092;2023-08-17T00:41:28;7.80;;;6.15;;
66585;SDS011;53444;45.822;16.092;2023-08-17T00:43:55;7.77;;;6.00;;
66585;SDS011;53444;45.822;16.092;2023-08-17T00:46:22;9.88;;;6.13;;
66585;SDS011;53444;45.822;16.092;2023-08-17T00:48:49;7.03;;;6.07;;
66585;SDS011;53444;45.822;16.092;2023-08-17T00:51:18;7.60;;;6.05;;
66585;SDS011;53444;45.822;16.092;2023-08-17T00:53:45;8.70;;;6.55;;
66585;SDS011;53444;45.822;16.092;2023-08-17T00:56:12;7.83;;;6.27;;
66585;SDS011;53444;45.822;16.092;2023-08-17T00:58:39;7.38;;;5.60;;
66585;SDS011;53444;45.822;16.092;2023-08-17T01:01:05;9.57;;;5.90;;
66585;SDS011;53444;45.822;16.092;2023-08-17T01:03:32;6.55;;;5.47;;
66585;SDS011;53444;45.822;16.092;2023-08-17T01:06:01;6.47;;;5.78;;
66585;SDS011;53444;45.822;16.092;2023-08-17T01:08:29;7.60;;;5.40;;
66585;SDS011;53444;45.822;16.092;2023-08-17T01:10:57;7.97;;;6.50;;
66585;SDS011;53444;45.822;16.092;2023-08-17T01:13:31;7.00;;;6.28;;
66585;SDS011;53444;45.822;16.092;2023-08-17T01:16:03;7.68;;;6.30;;
66585;SDS011;53444;45.822;16.092;2023-08-17T01:18:33;10.50;;;7.53;;
66585;SDS011;53444;45.822;16.092;2023-08-17T01:21:02;8.97;;;7.23;;
66585;SDS011;53444;45.822;16.092;2023-08-17T01:23:34;9.07;;;7.05;;
66585;SDS011;53444;45.822;16.092;2023-08-17T01:26:00;8.65;;;6.78;;
66585;SDS011;53444;45.822;16.092;2023-08-17T01:28:27;9.75;;;6.97;;
66585;SDS011;53444;45.822;16.092;2023-08-17T01:30:55;9.48;;;7.07;;
66585;SDS011;53444;45.822;16.092;2023-08-17T01:33:25;8.07;;;6.00;;
66585;SDS011;53444;45.822;16.092;2023-08-17T01:36:00;8.10;;;6.03;;
66585;SDS011;53444;45.822;16.092;2023-08-17T01:38:31;9.95;;;6.80;;
66585;SDS011;53444;45.822;16.092;2023-08-17T01:41:01;8.60;;;6.28;;
66585;SDS011;53444;45.822;16.092;2023-08-17T01:43:30;8.82;;;6.55;;
66585;SDS011;53444;45.822;16.092;2023-08-17T01:45:57;9.50;;;6.70;;
66585;SDS011;53444;45.822;16.092;2023-08-17T01:48:24;9.75;;;6.50;;
66585;SDS011;53444;45.822;16.092;2023-08-17T01:50:51;8.25;;;6.18;;
66585;SDS011;53444;45.822;16.092;2023-08-17T01:53:17;11.57;;;6.40;;
66585;SDS011;53444;45.822;16.092;2023-08-17T01:55:45;7.82;;;6.30;;
66585;SDS011;53444;45.822;16.092;2023-08-17T01:58:12;7.50;;;6.50;;
66585;SDS011;53444;45.822;16.092;2023-08-17T02:00:39;7.10;;;5.82;;
66585;SDS011;53444;45.822;16.092;2023-08-17T02:03:06;7.50;;;5.75;;
66585;SDS011;53444;45.822;16.092;2023-08-17T02:05:33;8.77;;;6.70;;
66585;SDS011;53444;45.822;16.092;2023-08-17T02:07:59;8.02;;;6.60;;
66585;SDS011;53444;45.822;16.092;2023-08-17T02:10:26;9.90;;;6.30;;
66585;SDS011;53444;45.822;16.092;2023-08-17T02:12:54;7.70;;;5.95;;
66585;SDS011;53444;45.822;16.092;2023-08-17T02:15:20;8.18;;;6.15;;
66585;SDS011;53444;45.822;16.092;2023-08-17T02:17:47;6.47;;;5.72;;
66585;SDS011;53444;45.822;16.092;2023-08-17T02:20:14;8.07;;;6.30;;
66585;SDS011;53444;45.822;16.092;2023-08-17T02:22:40;7.40;;;6.00;;
66585;SDS011;53444;45.822;16.092;2023-08-17T02:25:07;10.05;;;6.18;;
66585;SDS011;53444;45.822;16.092;2023-08-17T02:27:34;9.90;;;5.85;;
66585;SDS011;53444;45.822;16.092;2023-08-17T02:30:02;10.27;;;6.00;;
66585;SDS011;53444;45.822;16.092;2023-08-17T02:32:29;9.77;;;6.47;;
66585;SDS011;53444;45.822;16.092;2023-08-17T02:34:56;8.13;;;5.90;;
66585;SDS011;53444;45.822;16.092;2023-08-17T02:37:23;8.68;;;5.97;;
66585;SDS011;53444;45.822;16.092;2023-08-17T02:39:49;7.88;;;6.35;;
66585;SDS011;53444;45.822;16.092;2023-08-17T02:42:16;9.45;;;6.18;;
66585;SDS011;53444;45.822;16.092;2023-08-17T02:44:42;9.73;;;6.47;;
66585;SDS011;53444;45.822;16.092;2023-08-17T02:47:10;7.37;;;6.07;;
66585;SDS011;53444;45.822;16.092;2023-08-17T02:49:37;7.93;;;6.28;;
66585;SDS011;53444;45.822;16.092;2023-08-17T02:52:04;12.07;;;7.22;;
66585;SDS011;53444;45.822;16.092;2023-08-17T02:54:30;8.70;;;6.00;;
66585;SDS011;53444;45.822;16.092;2023-08-17T02:56:57;7.88;;;5.75;;
66585;SDS011;53444;45.822;16.092;2023-08-17T02:59:24;6.80;;;5.83;;
66585;SDS011;53444;45.822;16.092;2023-08-17T03:01:50;7.72;;;5.88;;
66585;SDS011;53444;45.822;16.092;2023-08-17T03:04:18;7.40;;;6.07;;
66585;SDS011;53444;45.822;16.092;2023-08-17T03:06:45;7.47;;;6.05;;
66585;SDS011;53444;45.822;16.092;2023-08-17T03:09:12;8.00;;;6.47;;
66585;SDS011;53444;45.822;16.092;2023-08-17T03:11:38;7.40;;;6.07;;
66585;SDS011;53444;45.822;16.092;2023-08-17T03:14:05;7.15;;;5.75;;
66585;SDS011;53444;45.822;16.092;2023-08-17T03:16:31;8.43;;;5.75;;
66585;SDS011;53444;45.822;16.092;2023-08-17T03:18:58;9.55;;;5.80;;
66585;SDS011;53444;45.822;16.092;2023-08-17T03:21:26;9.90;;;6.40;;
66585;SDS011;53444;45.822;16.092;2023-08-17T03:23:52;7.70;;;6.47;;
66585;SDS011;53444;45.822;16.092;2023-08-17T03:26:19;8.98;;;6.35;;
66585;SDS011;53444;45.822;16.092;2023-08-17T03:28:46;8.88;;;6.70;;
66585;SDS011;53444;45.822;16.092;2023-08-17T03:31:12;7.68;;;6.20;;
66585;SDS011;53444;45.822;16.092;2023-08-17T03:33:39;8.68;;;6.05;;
66585;SDS011;53444;45.822;16.092;2023-08-17T03:36:06;7.77;;;6.10;;
66585;SDS011;53444;45.822;16.092;2023-08-17T03:38:34;8.10;;;5.93;;
66585;SDS011;53444;45.822;16.092;2023-08-17T03:41:02;9.32;;;6.43;;
66585;SDS011;53444;45.822;16.092;2023-08-17T03:43:30;7.72;;;6.13;;
66585;SDS011;53444;45.822;16.092;2023-08-17T03:45:56;8.82;;;6.60;;
66585;SDS011;53444;45.822;16.092;2023-08-17T03:48:23;8.37;;;6.23;;
66585;SDS011;53444;45.822;16.092;2023-08-17T03:50:50;8.23;;;6.28;;
66585;SDS011;53444;45.822;16.092;2023-08-17T03:53:18;9.43;;;7.00;;
66585;SDS011;53444;45.822;16.092;2023-08-17T03:55:46;8.35;;;6.70;;
66585;SDS011;53444;45.822;16.092;2023-08-17T03:58:13;8.07;;;6.63;;
66585;SDS011;53444;45.822;16.092;2023-08-17T04:00:40;8.03;;;6.60;;
66585;SDS011;53444;45.822;16.092;2023-08-17T04:03:07;7.85;;;5.65;;
66585;SDS011;53444;45.822;16.092;2023-08-17T04:05:34;8.80;;;6.63;;
66585;SDS011;53444;45.822;16.092;2023-08-17T04:08:00;8.95;;;6.65;;
66585;SDS011;53444;45.822;16.092;2023-08-17T04:10:27;8.77;;;6.30;;
66585;SDS011;53444;45.822;16.092;2023-08-17T04:12:55;8.07;;;6.33;;
66585;SDS011;53444;45.822;16.092;2023-08-17T04:15:22;9.30;;;6.70;;
66585;SDS011;53444;45.822;16.092;2023-08-17T04:17:49;9.02;;;6.60;;
66585;SDS011;53444;45.822;16.092;2023-08-17T04:20:15;8.18;;;6.22;;
66585;SDS011;53444;45.822;16.092;2023-08-17T04:22:43;9.30;;;7.22;;
66585;SDS011;53444;45.822;16.092;2023-08-17T04:25:10;9.27;;;6.30;;
66585;SDS011;53444;45.822;16.092;2023-08-17T04:27:37;8.25;;;7.00;;
66585;SDS011;53444;45.822;16.092;2023-08-17T04:30:06;8.45;;;6.40;;
66585;SDS011;53444;45.822;16.092;2023-08-17T04:32:34;9.02;;;6.55;;
66585;SDS011;53444;45.822;16.092;2023-08-17T04:35:00;7.55;;;6.55;;
66585;SDS011;53444;45.822;16.092;2023-08-17T04:37:27;7.67;;;6.63;;
66585;SDS011;53444;45.822;16.092;2023-08-17T04:39:54;8.07;;;6.78;;
66585;SDS011;53444;45.822;16.092;2023-08-17T04:42:20;7.90;;;6.10;;
66585;SDS011;53444;45.822;16.092;2023-08-17T04:44:47;7.15;;;6.00;;
66585;SDS011;53444;45.822;16.092;2023-08-17T04:47:15;8.40;;;6.70;;
66585;SDS011;53444;45.822;16.092;2023-08-17T04:49:41;11.47;;;6.23;;
66585;SDS011;53444;45.822;16.092;2023-08-17T04:52:08;8.00;;;6.35;;
66585;SDS011;53444;45.822;16.092;2023-08-17T04:54:35;11.93;;;6.90;;
66585;SDS011;53444;45.822;16.092;2023-08-17T04:57:01;8.18;;;7.03;;
66585;SDS011;53444;45.822;16.092;2023-08-17T04:59:30;8.73;;;6.95;;
66585;SDS011;53444;45.822;16.092;2023-08-17T05:01:57;9.20;;;7.10;;
66585;SDS011;53444;45.822;16.092;2023-08-17T05:04:25;9.13;;;7.20;;
66585;SDS011;53444;45.822;16.092;2023-08-17T05:06:51;10.70;;;6.80;;
66585;SDS011;53444;45.822;16.092;2023-08-17T05:09:18;9.70;;;6.90;;
66585;SDS011;53444;45.822;16.092;2023-08-17T05:11:44;9.05;;;7.15;;
66585;SDS011;53444;45.822;16.092;2023-08-17T05:14:11;7.97;;;5.87;;
66585;SDS011;53444;45.822;16.092;2023-08-17T05:16:38;8.05;;;6.85;;
66585;SDS011;53444;45.822;16.092;2023-08-17T05:19:05;7.53;;;6.32;;
66585;SDS011;53444;45.822;16.092;2023-08-17T05:21:34;7.85;;;6.38;;
66585;SDS011;53444;45.822;16.092;2023-08-17T05:24:01;9.85;;;7.07;;
66585;SDS011;53444;45.822;16.092;2023-08-17T05:26:27;8.10;;;5.97;;
66585;SDS011;53444;45.822;16.092;2023-08-17T05:28:54;9.75;;;6.22;;
66585;SDS011;53444;45.822;16.092;2023-08-17T05:31:20;8.38;;;6.50;;
66585;SDS011;53444;45.822;16.092;2023-08-17T05:33:47;8.15;;;6.60;;
66585;SDS011;53444;45.822;16.092;2023-08-17T05:36:14;10.25;;;6.90;;
66585;SDS011;53444;45.822;16.092;2023-08-17T05:38:42;9.80;;;6.70;;
66585;SDS011;53444;45.822;16.092;2023-08-17T05:41:08;8.63;;;6.55;;
66585;SDS011;53444;45.822;16.092;2023-08-17T05:43:35;9.13;;;7.28;;
66585;SDS011;53444;45.822;16.092;2023-08-17T05:46:01;8.27;;;6.32;;
66585;SDS011;53444;45.822;16.092;2023-08-17T05:48:29;10.27;;;6.93;;
66585;SDS011;53444;45.822;16.092;2023-08-17T05:50:55;10.43;;;6.80;;
66585;SDS011;53444;45.822;16.092;2023-08-17T05:53:22;8.23;;;6.72;;
66585;SDS011;53444;45.822;16.092;2023-08-17T05:55:50;10.05;;;7.50;;
66585;SDS011;53444;45.822;16.092;2023-08-17T05:58:17;9.00;;;7.18;;
66585;SDS011;53444;45.822;16.092;2023-08-17T06:00:43;10.52;;;7.30;;
66585;SDS011;53444;45.822;16.092;2023-08-17T06:03:10;9.00;;;6.53;;
66585;SDS011;53444;45.822;16.092;2023-08-17T06:05:37;10.00;;;6.78;;
66585;SDS011;53444;45.822;16.092;2023-08-17T06:08:04;9.48;;;7.10;;
66585;SDS011;53444;45.822;16.092;2023-08-17T06:10:31;9.60;;;6.45;;
66585;SDS011;53444;45.822;16.092;2023-08-17T06:12:59;7.88;;;6.63;;
66585;SDS011;53444;45.822;16.092;2023-08-17T06:15:25;11.13;;;6.70;;
66585;SDS011;53444;45.822;16.092;2023-08-17T06:17:52;9.10;;;7.00;;
66585;SDS011;53444;45.822;16.092;2023-08-17T06:20:19;8.82;;;6.75;;
66585;SDS011;53444;45.822;16.092;2023-08-17T06:22:46;9.40;;;6.82;;
66585;SDS011;53444;45.822;16.092;2023-08-17T06:25:14;9.18;;;7.10;;
66585;SDS011;53444;45.822;16.092;2023-08-17T06:27:41;7.83;;;6.90;;
66585;SDS011;53444;45.822;16.092;2023-08-17T06:30:11;7.85;;;6.85;;
66585;SDS011;53444;45.822;16.092;2023-08-17T06:32:38;9.95;;;7.13;;
66585;SDS011;53444;45.822;16.092;2023-08-17T06:35:05;8.75;;;7.00;;
66585;SDS011;53444;45.822;16.092;2023-08-17T06:37:32;15.93;;;7.25;;
66585;SDS011;53444;45.822;16.092;2023-08-17T06:39:59;9.93;;;7.00;;
66585;SDS011;53444;45.822;16.092;2023-08-17T06:42:26;8.68;;;6.78;;
66585;SDS011;53444;45.822;16.092;2023-08-17T06:44:52;10.73;;;7.15;;
66585;SDS011;53444;45.822;16.092;2023-08-17T06:47:20;8.95;;;6.68;;
66585;SDS011;53444;45.822;16.092;2023-08-17T06:49:47;11.13;;;7.22;;
66585;SDS011;53444;45.822;16.092;2023-08-17T06:52:13;11.87;;;6.80;;
66585;SDS011;53444;45.822;16.092;2023-08-17T06:54:40;9.95;;;6.82;;
66585;SDS011;53444;45.822;16.092;2023-08-17T06:57:07;10.77;;;7.13;;
66585;SDS011;53444;45.822;16.092;2023-08-17T06:59:34;9.05;;;7.22;;
66585;SDS011;53444;45.822;16.092;2023-08-17T07:02:00;8.25;;;6.35;;
66585;SDS011;53444;45.822;16.092;2023-08-17T07:04:28;9.93;;;6.67;;
66585;SDS011;53444;45.822;16.092;2023-08-17T07:06:55;7.75;;;6.55;;
66585;SDS011;53444;45.822;16.092;2023-08-17T07:09:21;9.75;;;7.40;;
66585;SDS011;53444;45.822;16.092;2023-08-17T07:11:48;9.85;;;7.03;;
66585;SDS011;53444;45.822;16.092;2023-08-17T07:14:15;10.30;;;7.18;;
66585;SDS011;53444;45.822;16.092;2023-08-17T07:16:42;8.47;;;6.87;;
66585;SDS011;53444;45.822;16.092;2023-08-17T07:19:09;9.10;;;7.07;;
66585;SDS011;53444;45.822;16.092;2023-08-17T07:21:37;9.50;;;7.20;;
66585;SDS011;53444;45.822;16.092;2023-08-17T07:24:11;9.13;;;6.85;;
66585;SDS011;53444;45.822;16.092;2023-08-17T07:26:38;10.35;;;7.10;;
66585;SDS011;53444;45.822;16.092;2023-08-17T07:29:05;8.37;;;7.00;;
66585;SDS011;53444;45.822;16.092;2023-08-17T07:31:32;9.25;;;7.85;;
66585;SDS011;53444;45.822;16.092;2023-08-17T07:34:02;9.18;;;6.60;;
66585;SDS011;53444;45.822;16.092;2023-08-17T07:36:29;9.55;;;7.10;;
66585;SDS011;53444;45.822;16.092;2023-08-17T07:38:57;9.65;;;6.70;;
66585;SDS011;53444;45.822;16.092;2023-08-17T07:41:23;10.47;;;7.57;;
66585;SDS011;53444;45.822;16.092;2023-08-17T07:43:50;8.68;;;7.63;;
66585;SDS011;53444;45.822;16.092;2023-08-17T07:46:17;8.18;;;6.93;;
66585;SDS011;53444;45.822;16.092;2023-08-17T07:48:44;8.70;;;7.00;;
66585;SDS011;53444;45.822;16.092;2023-08-17T07:51:10;9.85;;;7.65;;
66585;SDS011;53444;45.822;16.092;2023-08-17T07:53:37;9.17;;;7.37;;
66585;SDS011;53444;45.822;16.092;2023-08-17T07:56:05;10.40;;;7.10;;
66585;SDS011;53444;45.822;16.092;2023-08-17T07:58:31;10.48;;;7.65;;
66585;SDS011;53444;45.822;16.092;2023-08-17T08:00:58;10.43;;;7.43;;
66585;SDS011;53444;45.822;16.092;2023-08-17T08:03:25;7.70;;;6.95;;
66585;SDS011;53444;45.822;16.092;2023-08-17T08:05:51;9.63;;;7.03;;
66585;SDS011;53444;45.822;16.092;2023-08-17T08:08:18;9.23;;;7.63;;
66585;SDS011;53444;45.822;16.092;2023-08-17T08:10:45;8.00;;;6.88;;
66585;SDS011;53444;45.822;16.092;2023-08-17T08:13:13;11.48;;;7.70;;
66585;SDS011;53444;45.822;16.092;2023-08-17T08:15:39;7.53;;;6.70;;
66585;SDS011;53444;45.822;16.092;2023-08-17T08:18:06;10.10;;;7.70;;
66585;SDS011;53444;45.822;16.092;2023-08-17T08:20:32;8.38;;;7.53;;
66585;SDS011;53444;45.822;16.092;2023-08-17T08:22:59;8.77;;;6.72;;
66585;SDS011;53444;45.822;16.092;2023-08-17T08:25:26;10.65;;;7.25;;
66585;SDS011;53444;45.822;16.092;2023-08-17T08:27:52;9.18;;;7.90;;
66585;SDS011;53444;45.822;16.092;2023-08-17T08:30:20;7.07;;;6.37;;
66585;SDS011;53444;45.822;16.092;2023-08-17T08:32:47;8.88;;;7.18;;
66585;SDS011;53444;45.822;16.092;2023-08-17T08:35:14;8.80;;;7.85;;
66585;SDS011;53444;45.822;16.092;2023-08-17T08:37:40;8.18;;;6.53;;
66585;SDS011;53444;45.822;16.092;2023-08-17T08:40:09;9.27;;;6.97;;
66585;SDS011;53444;45.822;16.092;2023-08-17T08:42:38;8.87;;;6.60;;
66585;SDS011;53444;45.822;16.092;2023-08-17T08:45:05;11.80;;;7.15;;
66585;SDS011;53444;45.822;16.092;2023-08-17T08:47:33;8.20;;;6.50;;
66585;SDS011;53444;45.822;16.092;2023-08-17T08:50:03;7.57;;;6.50;;
66585;SDS011;53444;45.822;16.092;2023-08-17T08:52:32;9.23;;;7.75;;
66585;SDS011;53444;45.822;16.092;2023-08-17T08:55:01;11.20;;;6.90;;
66585;SDS011;53444;45.822;16.092;2023-08-17T08:57:36;8.05;;;7.25;;
66585;SDS011;53444;45.822;16.092;2023-08-17T09:00:03;9.20;;;7.88;;
66585;SDS011;53444;45.822;16.092;2023-08-17T09:02:33;8.02;;;6.90;;
66585;SDS011;53444;45.822;16.092;2023-08-17T09:05:01;11.25;;;7.32;;
66585;SDS011;53444;45.822;16.092;2023-08-17T09:07:28;8.07;;;7.27;;
66585;SDS011;53444;45.822;16.092;2023-08-17T09:09:56;10.18;;;7.70;;
66585;SDS011;53444;45.822;16.092;2023-08-17T09:12:23;8.00;;;7.07;;
66585;SDS011;53444;45.822;16.092;2023-08-17T09:14:51;9.35;;;6.95;;
66585;SDS011;53444;45.822;16.092;2023-08-17T09:17:22;10.88;;;7.70;;
66585;SDS011;53444;45.822;16.092;2023-08-17T09:19:51;9.97;;;6.87;;
66585;SDS011;53444;45.822;16.092;2023-08-17T09:22:22;8.18;;;7.35;;
66585;SDS011;53444;45.822;16.092;2023-08-17T09:24:49;9.70;;;7.80;;
66585;SDS011;53444;45.822;16.092;2023-08-17T09:27:16;8.50;;;7.60;;
66585;SDS011;53444;45.822;16.092;2023-08-17T09:29:43;8.32;;;7.53;;
66585;SDS011;53444;45.822;16.092;2023-08-17T09:32:11;8.47;;;7.43;;
66585;SDS011;53444;45.822;16.092;2023-08-17T09:34:41;8.18;;;7.30;;
66585;SDS011;53444;45.822;16.092;2023-08-17T09:37:09;8.60;;;7.38;;
66585;SDS011;53444;45.822;16.092;2023-08-17T09:39:38;9.15;;;7.32;;
66585;SDS011;53444;45.822;16.092;2023-08-17T09:42:05;8.23;;;7.32;;
66585;SDS011;53444;45.822;16.092;2023-08-17T09:44:33;9.90;;;7.00;;
66585;SDS011;53444;45.822;16.092;2023-08-17T09:47:00;8.30;;;7.13;;
66585;SDS011;53444;45.822;16.092;2023-08-17T09:49:30;7.70;;;6.95;;
66585;SDS011;53444;45.822;16.092;2023-08-17T09:51:58;11.98;;;7.30;;
66585;SDS011;53444;45.822;16.092;2023-08-17T09:54:27;9.82;;;7.53;;
66585;SDS011;53444;45.822;16.092;2023-08-17T09:56:57;8.97;;;8.07;;
66585;SDS011;53444;45.822;16.092;2023-08-17T09:59:24;9.20;;;6.80;;
66585;SDS011;53444;45.822;16.092;2023-08-17T10:01:51;8.73;;;7.00;;
66585;SDS011;53444;45.822;16.092;2023-08-17T10:04:19;8.57;;;7.45;;
66585;SDS011;53444;45.822;16.092;2023-08-17T10:06:47;8.45;;;7.55;;
66585;SDS011;53444;45.822;16.092;2023-08-17T10:09:14;9.77;;;7.23;;
66585;SDS011;53444;45.822;16.092;2023-08-17T10:11:47;8.73;;;7.55;;
66585;SDS011;53444;45.822;16.092;2023-08-17T10:14:20;8.38;;;7.20;;
66585;SDS011;53444;45.822;16.092;2023-08-17T10:16:50;8.93;;;7.63;;
66585;SDS011;53444;45.822;16.092;2023-08-17T10:19:25;8.25;;;7.45;;
66585;SDS011;53444;45.822;16.092;2023-08-17T10:22:01;10.00;;;7.80;;
66585;SDS011;53444;45.822;16.092;2023-08-17T10:24:33;8.38;;;7.38;;
66585;SDS011;53444;45.822;16.092;2023-08-17T10:27:03;8.30;;;7.32;;
66585;SDS011;53444;45.822;16.092;2023-08-17T10:29:31;9.68;;;6.85;;
66585;SDS011;53444;45.822;16.092;2023-08-17T10:31:58;9.63;;;8.63;;
66585;SDS011;53444;45.822;16.092;2023-08-17T10:34:27;8.17;;;7.37;;
66585;SDS011;53444;45.822;16.092;2023-08-17T10:36:54;9.00;;;6.90;;
66585;SDS011;53444;45.822;16.092;2023-08-17T10:39:23;10.75;;;7.97;;
66585;SDS011;53444;45.822;16.092;2023-08-17T10:41:51;7.97;;;7.15;;
66585;SDS011;53444;45.822;16.092;2023-08-17T10:44:37;8.52;;;7.35;;
66585;SDS011;53444;45.822;16.092;2023-08-17T10:47:18;9.97;;;7.63;;
66585;SDS011;53444;45.822;16.092;2023-08-17T10:49:45;8.82;;;7.50;;
66585;SDS011;53444;45.822;16.092;2023-08-17T10:52:14;8.15;;;7.28;;
66585;SDS011;53444;45.822;16.092;2023-08-17T10:54:41;7.90;;;7.03;;
66585;SDS011;53444;45.822;16.092;2023-08-17T10:57:24;8.80;;;6.93;;
66585;SDS011;53444;45.822;16.092;2023-08-17T11:00:05;8.37;;;7.60;;
66585;SDS011;53444;45.822;16.092;2023-08-17T11:02:33;8.55;;;7.75;;
66585;SDS011;53444;45.822;16.092;2023-08-17T11:05:00;7.97;;;6.95;;
66585;SDS011;53444;45.822;16.092;2023-08-17T11:07:27;7.85;;;6.93;;
66585;SDS011;53444;45.822;16.092;2023-08-17T11:10:10;7.93;;;7.13;;
66585;SDS011;53444;45.822;16.092;2023-08-17T11:12:40;7.93;;;7.20;;
66585;SDS011;53444;45.822;16.092;2023-08-17T11:15:09;7.80;;;7.00;;
66585;SDS011;53444;45.822;16.092;2023-08-17T11:17:36;8.23;;;6.50;;
66585;SDS011;53444;45.822;16.092;2023-08-17T11:20:03;8.93;;;6.85;;
66585;SDS011;53444;45.822;16.092;2023-08-17T11:22:30;8.93;;;7.35;;
66585;SDS011;53444;45.822;16.092;2023-08-17T11:24:57;7.70;;;7.00;;
66585;SDS011;53444;45.822;16.092;2023-08-17T11:27:24;10.07;;;6.80;;
66585;SDS011;53444;45.822;16.092;2023-08-17T11:29:51;8.82;;;7.15;;
66585;SDS011;53444;45.822;16.092;2023-08-17T11:32:19;7.78;;;7.07;;
66585;SDS011;53444;45.822;16.092;2023-08-17T11:34:46;8.43;;;6.97;;
66585;SDS011;53444;45.822;16.092;2023-08-17T11:37:13;7.83;;;7.13;;
66585;SDS011;53444;45.822;16.092;2023-08-17T11:39:39;7.85;;;6.95;;
66585;SDS011;53444;45.822;16.092;2023-08-17T11:42:06;9.27;;;7.78;;
66585;SDS011;53444;45.822;16.092;2023-08-17T11:44:33;9.00;;;7.50;;
66585;SDS011;53444;45.822;16.092;2023-08-17T11:46:59;8.25;;;6.93;;
66585;SDS011;53444;45.822;16.092;2023-08-17T11:49:27;8.23;;;7.43;;
66585;SDS011;53444;45.822;16.092;2023-08-17T11:51:56;8.30;;;6.95;;
66585;SDS011;53444;45.822;16.092;2023-08-17T11:54:23;8.25;;;7.45;;
66585;SDS011;53444;45.822;16.092;2023-08-17T11:56:49;9.18;;;7.60;;
66585;SDS011;53444;45.822;16.092;2023-08-17T11:59:16;7.63;;;6.88;;
66585;SDS011;53444;45.822;16.092;2023-08-17T12:01:43;7.67;;;6.87;;
66585;SDS011;53444;45.822;16.092;2023-08-17T12:04:10;8.38;;;7.40;;
66585;SDS011;53444;45.822;16.092;2023-08-17T12:06:43;8.23;;;7.40;;
66585;SDS011;53444;45.822;16.092;2023-08-17T12:09:10;9.70;;;8.45;;
66585;SDS011;53444;45.822;16.092;2023-08-17T12:11:38;8.25;;;7.55;;
66585;SDS011;53444;45.822;16.092;2023-08-17T12:14:08;10.30;;;7.97;;
66585;SDS011;53444;45.822;16.092;2023-08-17T12:16:44;9.73;;;7.95;;
66585;SDS011;53444;45.822;16.092;2023-08-17T12:19:11;9.45;;;8.55;;
66585;SDS011;53444;45.822;16.092;2023-08-17T12:21:41;9.38;;;8.45;;
66585;SDS011;53444;45.822;16.092;2023-08-17T12:24:08;8.82;;;7.93;;
66585;SDS011;53444;45.822;16.092;2023-08-17T12:26:35;8.73;;;7.93;;
66585;SDS011;53444;45.822;16.092;2023-08-17T12:29:04;8.25;;;7.45;;
66585;SDS011;53444;45.822;16.092;2023-08-17T12:31:32;9.35;;;7.47;;
66585;SDS011;53444;45.822;16.092;2023-08-17T12:33:58;8.25;;;7.35;;
66585;SDS011;53444;45.822;16.092;2023-08-17T12:36:25;7.47;;;6.60;;
66585;SDS011;53444;45.822;16.092;2023-08-17T12:38:53;8.20;;;7.40;;
66585;SDS011;53444;45.822;16.092;2023-08-17T12:41:20;8.32;;;6.38;;
66585;SDS011;53444;45.822;16.092;2023-08-17T12:43:47;8.82;;;6.65;;
66585;SDS011;53444;45.822;16.092;2023-08-17T12:46:14;7.18;;;6.40;;
66585;SDS011;53444;45.822;16.092;2023-08-17T12:48:40;7.15;;;6.50;;
66585;SDS011;53444;45.822;16.092;2023-08-17T12:51:07;7.00;;;6.40;;
66585;SDS011;53444;45.822;16.092;2023-08-17T12:53:34;12.25;;;7.00;;
66585;SDS011;53444;45.822;16.092;2023-08-17T12:56:02;7.53;;;6.82;;
66585;SDS011;53444;45.822;16.092;2023-08-17T12:58:28;7.70;;;6.53;;
66585;SDS011;53444;45.822;16.092;2023-08-17T13:00:55;6.68;;;6.07;;
66585;SDS011;53444;45.822;16.092;2023-08-17T13:03:22;8.00;;;6.60;;
66585;SDS011;53444;45.822;16.092;2023-08-17T13:05:48;7.63;;;6.40;;
66585;SDS011;53444;45.822;16.092;2023-08-17T13:08:15;6.95;;;6.32;;
66585;SDS011;53444;45.822;16.092;2023-08-17T13:10:42;7.75;;;6.90;;
66585;SDS011;53444;45.822;16.092;2023-08-17T13:13:10;6.80;;;5.95;;
66585;SDS011;53444;45.822;16.092;2023-08-17T13:15:36;7.33;;;6.50;;
66585;SDS011;53444;45.822;16.092;2023-08-17T13:18:03;6.95;;;6.32;;
66585;SDS011;53444;45.822;16.092;2023-08-17T13:20:30;7.20;;;6.50;;
66585;SDS011;53444;45.822;16.092;2023-08-17T13:22:57;8.55;;;6.78;;
66585;SDS011;53444;45.822;16.092;2023-08-17T13:25:23;7.13;;;6.40;;
66585;SDS011;53444;45.822;16.092;2023-08-17T13:27:50;7.47;;;6.77;;
66585;SDS011;53444;45.822;16.092;2023-08-17T13:30:18;7.47;;;6.68;;
66585;SDS011;53444;45.822;16.092;2023-08-17T13:32:45;7.63;;;6.65;;
66585;SDS011;53444;45.822;16.092;2023-08-17T13:35:11;7.32;;;6.15;;
66585;SDS011;53444;45.822;16.092;2023-08-17T13:37:38;7.10;;;6.40;;
66585;SDS011;53444;45.822;16.092;2023-08-17T13:40:06;6.50;;;5.90;;
66585;SDS011;53444;45.822;16.092;2023-08-17T13:42:33;7.75;;;7.03;;
66585;SDS011;53444;45.822;16.092;2023-08-17T13:45:01;6.63;;;5.93;;
66585;SDS011;53444;45.822;16.092;2023-08-17T13:47:30;7.28;;;6.57;;
66585;SDS011;53444;45.822;16.092;2023-08-17T13:49:57;7.35;;;6.43;;
66585;SDS011;53444;45.822;16.092;2023-08-17T13:52:23;8.57;;;6.87;;
66585;SDS011;53444;45.822;16.092;2023-08-17T13:54:50;13.27;;;6.40;;
66585;SDS011;53444;45.822;16.092;2023-08-17T13:57:16;7.32;;;6.63;;
66585;SDS011;53444;45.822;16.092;2023-08-17T13:59:43;7.53;;;6.47;;
66585;SDS011;53444;45.822;16.092;2023-08-17T14:02:10;7.28;;;6.57;;
66585;SDS011;53444;45.822;16.092;2023-08-17T14:04:38;8.57;;;6.93;;
66585;SDS011;53444;45.822;16.092;2023-08-17T14:07:04;7.43;;;6.47;;
66585;SDS011;53444;45.822;16.092;2023-08-17T14:09:31;8.70;;;7.90;;
66585;SDS011;53444;45.822;16.092;2023-08-17T14:11:57;8.00;;;6.90;;
66585;SDS011;53444;45.822;16.092;2023-08-17T14:14:24;9.40;;;7.25;;
66585;SDS011;53444;45.822;16.092;2023-08-17T14:16:51;7.87;;;7.10;;
66585;SDS011;53444;45.822;16.092;2023-08-17T14:19:17;8.20;;;7.40;;
66585;SDS011;53444;45.822;16.092;2023-08-17T14:21:45;8.30;;;7.60;;
66585;SDS011;53444;45.822;16.092;2023-08-17T14:24:12;8.00;;;7.22;;
66585;SDS011;53444;45.822;16.092;2023-08-17T14:26:39;8.75;;;7.30;;
66585;SDS011;53444;45.822;16.092;2023-08-17T14:29:06;7.47;;;6.73;;
66585;SDS011;53444;45.822;16.092;2023-08-17T14:31:32;8.02;;;6.93;;
66585;SDS011;53444;45.822;16.092;2023-08-17T14:33:59;7.88;;;7.13;;
66585;SDS011;53444;45.822;16.092;2023-08-17T14:36:25;8.13;;;7.32;;